createdAt,value
2022-12-01T00:01:15.313Z,14.85
2022-12-01T00:03:42.176Z,15.10
2022-12-01T00:06:18.065Z,14.82
2022-12-01T00:09:06.183Z,14.88
2022-12-01T00:11:34.882Z,15.23
2022-12-01T00:14:02.108Z,15.75
2022-12-01T00:16:29.450Z,14.75
2022-12-01T00:18:56.546Z,15.88
2022-12-01T00:21:25.051Z,16.88
2022-12-01T00:23:55.146Z,15.90
2022-12-01T00:26:22.676Z,15.82
2022-12-01T00:28:54.556Z,15.85
2022-12-01T00:31:22.516Z,15.70
2022-12-01T00:33:49.640Z,15.27
2022-12-01T00:36:16.596Z,15.48
2022-12-01T00:38:43.504Z,14.25
2022-12-01T00:41:10.438Z,15.65
2022-12-01T00:43:37.392Z,16.20
2022-12-01T00:46:04.438Z,16.70
2022-12-01T00:48:31.572Z,15.30
2022-12-01T00:50:58.475Z,15.35
2022-12-01T00:53:25.460Z,15.13
2022-12-01T00:55:54.222Z,15.07
2022-12-01T00:58:22.362Z,14.52
2022-12-01T01:00:49.790Z,15.48
2022-12-01T01:03:17.008Z,14.27
2022-12-01T01:05:44.393Z,13.82
2022-12-01T01:08:13.568Z,14.13
2022-12-01T01:10:41.586Z,14.73
2022-12-01T01:13:09.120Z,15.25
2022-12-01T01:15:36.179Z,14.55
2022-12-01T01:18:03.573Z,14.73
2022-12-01T01:20:30.474Z,13.77
2022-12-01T01:22:57.610Z,14.88
2022-12-01T01:25:24.796Z,15.65
2022-12-01T01:27:52.037Z,14.32
2022-12-01T01:30:19.244Z,16.77
2022-12-01T01:32:46.231Z,14.80
2022-12-01T01:35:13.409Z,14.88
2022-12-01T01:37:40.374Z,15.05
2022-12-01T01:40:07.783Z,15.80
2022-12-01T01:42:34.757Z,14.30
2022-12-01T01:45:01.629Z,14.70
2022-12-01T01:47:36.618Z,15.15
2022-12-01T01:50:09.328Z,14.13
2022-12-01T01:52:43.943Z,14.57
2022-12-01T01:55:12.399Z,14.85
2022-12-01T01:57:39.978Z,15.20
2022-12-01T02:00:19.118Z,14.63
2022-12-01T02:02:47.368Z,14.10
2022-12-01T02:05:24.016Z,14.00
2022-12-01T02:07:53.743Z,14.07
2022-12-01T02:10:23.981Z,14.68
2022-12-01T02:13:04.159Z,14.68
2022-12-01T02:16:01.415Z,15.05
2022-12-01T02:21:36.352Z,14.50
2022-12-01T02:24:24.108Z,15.88
2022-12-01T02:27:01.634Z,15.48
2022-12-01T02:29:34.435Z,15.48
2022-12-01T02:32:07.135Z,14.73
2022-12-01T02:34:56.820Z,15.88
2022-12-01T02:37:34.440Z,14.25
2022-12-01T02:40:14.473Z,14.82
2022-12-01T02:43:05.574Z,14.90
2022-12-01T02:45:49.098Z,15.10
2022-12-01T02:48:29.738Z,14.05
2022-12-01T02:51:01.355Z,14.70
2022-12-01T02:53:28.522Z,14.90
2022-12-01T02:55:58.110Z,15.07
2022-12-01T02:58:25.128Z,14.63
2022-12-01T03:01:23.089Z,14.60
2022-12-01T03:04:21.362Z,14.73
2022-12-01T03:07:15.641Z,15.57
2022-12-01T03:10:13.657Z,14.48
2022-12-01T03:13:07.931Z,14.45
2022-12-01T03:15:49.058Z,15.38
2022-12-01T03:18:24.755Z,14.40
2022-12-01T03:21:11.145Z,15.35
2022-12-01T03:23:45.706Z,14.27
2022-12-01T03:26:17.488Z,15.18
2022-12-01T03:28:49.922Z,14.88
2022-12-01T03:31:20.998Z,14.02
2022-12-01T03:33:54.884Z,14.88
2022-12-01T03:36:33.676Z,14.95
2022-12-01T03:39:04.875Z,15.23
2022-12-01T03:41:45.634Z,16.98
2022-12-01T03:44:21.120Z,15.23
2022-12-01T03:46:50.285Z,15.05
2022-12-01T03:49:19.368Z,16.23
2022-12-01T03:52:04.587Z,16.38
2022-12-01T03:54:55.577Z,17.35
2022-12-01T03:57:31.771Z,17.27
2022-12-01T03:59:58.760Z,18.10
2022-12-01T04:02:28.562Z,16.90
2022-12-01T04:04:55.586Z,17.95
2022-12-01T04:07:23.614Z,18.55
2022-12-01T04:09:50.878Z,19.50
2022-12-01T04:12:29.929Z,17.20
2022-12-01T04:15:02.336Z,18.25
2022-12-01T04:17:29.660Z,17.60
2022-12-01T04:19:56.733Z,14.57
2022-12-01T04:22:24.363Z,17.17
2022-12-01T04:24:51.520Z,16.38
2022-12-01T04:27:18.793Z,17.85
2022-12-01T04:29:45.863Z,16.98
2022-12-01T04:32:13.885Z,15.90
2022-12-01T04:34:41.580Z,16.50
2022-12-01T04:37:10.234Z,17.67
2022-12-01T04:39:37.272Z,16.92
2022-12-01T04:42:05.210Z,17.58
2022-12-01T04:44:34.955Z,18.73
2022-12-01T04:47:04.009Z,17.33
2022-12-01T04:49:31.510Z,18.50
2022-12-01T04:51:58.669Z,18.23
2022-12-01T04:54:27.152Z,18.50
2022-12-01T04:56:54.113Z,17.25
2022-12-01T04:59:21.108Z,18.67
2022-12-01T05:01:48.566Z,16.27
2022-12-01T05:04:16.048Z,18.23
2022-12-01T05:06:43.476Z,17.73
2022-12-01T05:09:17.413Z,17.70
2022-12-01T05:11:44.987Z,17.70
2022-12-01T05:14:11.951Z,16.52
2022-12-01T05:16:39.330Z,18.30
2022-12-01T05:19:29.026Z,18.23
2022-12-01T05:21:56.515Z,19.15
2022-12-01T05:24:23.815Z,17.83
2022-12-01T05:26:50.787Z,17.80
2022-12-01T05:29:18.096Z,18.25
2022-12-01T05:31:46.334Z,18.67
2022-12-01T05:34:34.984Z,19.70
2022-12-01T05:37:02.050Z,18.30
2022-12-01T05:39:29.107Z,18.15
2022-12-01T05:41:56.292Z,17.63
2022-12-01T05:44:26.258Z,18.15
2022-12-01T05:46:53.298Z,19.58
2022-12-01T05:49:24.279Z,18.15
2022-12-01T05:54:41.711Z,15.75
2022-12-01T05:58:08.138Z,18.38
2022-12-01T06:04:42.066Z,18.63
2022-12-01T06:13:17.913Z,19.52
2022-12-01T06:15:47.408Z,20.80
2022-12-01T06:18:17.402Z,17.73
2022-12-01T06:20:47.401Z,18.17
2022-12-01T06:23:14.534Z,18.50
2022-12-01T06:25:42.411Z,19.95
2022-12-01T06:28:09.785Z,16.85
2022-12-01T06:30:37.463Z,19.52
2022-12-01T06:33:15.460Z,17.75
2022-12-01T06:35:46.211Z,19.27
2022-12-01T06:38:13.723Z,18.17
2022-12-01T06:40:42.632Z,14.38
2022-12-01T06:43:10.473Z,17.80
2022-12-01T06:45:38.008Z,16.25
2022-12-01T06:48:07.048Z,14.15
2022-12-01T06:50:36.793Z,17.35
2022-12-01T07:02:58.621Z,19.30
2022-12-01T07:05:34.649Z,17.67
2022-12-01T07:08:23.983Z,19.08
2022-12-01T07:11:29.235Z,17.30
2022-12-01T07:14:34.192Z,17.95
2022-12-01T07:17:15.706Z,18.45
2022-12-01T07:19:52.011Z,18.10
2022-12-01T07:25:07.373Z,22.90
2022-12-01T07:28:03.451Z,20.20
2022-12-01T07:30:50.130Z,21.35
2022-12-01T07:36:11.355Z,20.73
2022-12-01T07:39:10.866Z,19.05
2022-12-01T07:45:21.160Z,18.77
2022-12-01T07:47:53.445Z,19.25
2022-12-01T07:50:32.067Z,18.80
2022-12-01T08:06:47.971Z,14.30
2022-12-01T08:09:21.998Z,17.33
2022-12-01T08:16:18.317Z,14.70
2022-12-01T08:26:17.637Z,15.70
2022-12-01T08:28:48.465Z,15.35
2022-12-01T08:31:24.709Z,14.43
2022-12-01T08:36:45.050Z,16.17
2022-12-01T08:39:17.111Z,15.45
2022-12-01T08:41:52.802Z,12.85
2022-12-01T08:44:44.173Z,14.70
2022-12-01T08:47:18.938Z,15.48
2022-12-01T08:53:30.221Z,15.48
2022-12-01T08:57:00.026Z,14.40
2022-12-01T09:02:27.433Z,12.90
2022-12-01T09:04:57.963Z,12.60
2022-12-01T09:08:27.581Z,11.70
2022-12-01T09:14:31.808Z,12.13
2022-12-01T09:20:33.509Z,13.82
2022-12-01T09:23:51.426Z,12.15
2022-12-01T09:27:10.975Z,12.93
2022-12-01T09:29:57.187Z,11.80
2022-12-01T09:32:42.173Z,12.95
2022-12-01T09:35:30.552Z,13.98
2022-12-01T09:39:04.893Z,14.35
2022-12-01T09:41:57.368Z,17.40
2022-12-01T09:45:20.666Z,13.32
2022-12-01T09:48:02.704Z,13.73
2022-12-01T09:56:59.829Z,12.23
2022-12-01T10:00:04.844Z,11.93
2022-12-01T10:02:45.835Z,11.85
2022-12-01T10:05:18.638Z,12.70
2022-12-01T10:07:58.300Z,12.07
2022-12-01T10:11:15.390Z,11.15
2022-12-01T10:13:45.617Z,12.88
2022-12-01T10:16:30.613Z,12.18
2022-12-01T10:19:25.992Z,11.23
2022-12-01T10:22:37.105Z,12.35
2022-12-01T10:25:58.773Z,13.32
2022-12-01T10:28:55.164Z,12.65
2022-12-01T10:35:16.077Z,12.82
2022-12-01T10:37:55.200Z,12.57
2022-12-01T10:40:40.364Z,13.48
2022-12-01T10:57:02.973Z,12.93
2022-12-01T10:59:49.623Z,13.98
2022-12-01T11:03:09.749Z,12.27
2022-12-01T11:05:54.075Z,12.68
2022-12-01T11:12:52.806Z,13.43
2022-12-01T11:23:24.102Z,13.00
2022-12-01T11:52:59.087Z,13.80
2022-12-01T11:59:38.271Z,13.68
2022-12-01T12:02:32.534Z,14.05
2022-12-01T12:05:09.503Z,13.38
2022-12-01T12:08:11.574Z,13.20
2022-12-01T12:10:54.292Z,14.45
2022-12-01T12:13:48.156Z,13.15
2022-12-01T12:16:50.865Z,13.93
2022-12-01T12:19:34.067Z,13.27
2022-12-01T12:22:35.777Z,14.00
2022-12-01T12:25:44.206Z,14.18
2022-12-01T12:28:39.021Z,14.57
2022-12-01T12:32:18.513Z,14.65
2022-12-01T12:34:57.530Z,13.95
2022-12-01T12:38:01.524Z,13.98
2022-12-01T12:41:07.091Z,13.38
2022-12-01T12:43:57.347Z,13.07
2022-12-01T12:47:08.884Z,14.00
2022-12-01T12:49:50.781Z,13.95
2022-12-01T12:52:53.756Z,13.43
2022-12-01T12:55:33.527Z,13.35
2022-12-01T12:58:33.569Z,13.57
2022-12-01T13:01:46.404Z,13.23
2022-12-01T13:04:33.332Z,13.00
2022-12-01T13:07:25.786Z,13.82
2022-12-01T13:10:41.141Z,13.95
2022-12-01T13:13:23.289Z,15.20
2022-12-01T13:15:54.806Z,15.35
2022-12-01T13:18:49.066Z,13.15
2022-12-01T13:21:20.584Z,13.15
2022-12-01T13:23:50.184Z,12.40
2022-12-01T13:26:25.073Z,13.40
2022-12-01T13:28:58.427Z,13.65
2022-12-01T13:31:25.802Z,14.32
2022-12-01T13:34:01.922Z,13.40
2022-12-01T13:36:46.331Z,12.63
2022-12-01T13:39:36.531Z,13.88
2022-12-01T13:42:08.320Z,12.90
2022-12-01T13:44:42.281Z,13.45
2022-12-01T13:47:15.068Z,11.85
2022-12-01T13:49:50.828Z,13.82
2022-12-01T13:52:29.056Z,12.45
2022-12-01T13:55:04.490Z,12.60
2022-12-01T13:57:38.809Z,12.05
2022-12-01T14:00:24.591Z,12.55
2022-12-01T14:03:13.765Z,11.73
2022-12-01T14:05:40.792Z,11.77
2022-12-01T14:08:28.790Z,11.43
2022-12-01T14:11:23.806Z,11.00
2022-12-01T14:14:00.999Z,11.90
2022-12-01T14:17:04.056Z,12.35
2022-12-01T14:19:37.841Z,12.60
2022-12-01T14:22:08.342Z,12.00
2022-12-01T14:24:39.050Z,11.23
2022-12-01T14:27:07.981Z,12.10
2022-12-01T14:29:43.821Z,10.60
2022-12-01T14:32:16.973Z,11.63
2022-12-01T14:34:45.418Z,11.60
2022-12-01T14:37:20.379Z,12.48
2022-12-01T14:39:57.367Z,12.50
2022-12-01T14:42:42.792Z,15.70
2022-12-01T14:45:15.351Z,22.98
2022-12-01T14:47:52.844Z,16.33
2022-12-01T14:50:32.315Z,12.75
2022-12-01T14:53:24.742Z,11.93
2022-12-01T14:56:11.589Z,11.73
2022-12-01T15:01:10.085Z,14.65
2022-12-01T15:03:45.488Z,12.52
2022-12-01T15:06:23.930Z,12.97
2022-12-01T15:14:49.999Z,12.57
2022-12-01T15:17:37.134Z,13.20
2022-12-01T15:20:25.343Z,12.60
2022-12-01T15:22:53.407Z,13.20
2022-12-01T15:25:20.889Z,13.18
2022-12-01T15:28:13.538Z,13.00
2022-12-01T15:30:42.901Z,13.40
2022-12-01T15:33:36.978Z,13.85
2022-12-01T15:36:07.019Z,15.00
2022-12-01T15:38:38.931Z,15.07
2022-12-01T15:44:05.526Z,12.02
2022-12-01T15:46:37.253Z,13.50
2022-12-01T15:49:30.172Z,13.73
2022-12-01T15:52:09.881Z,13.50
2022-12-01T15:54:38.059Z,14.77
2022-12-01T15:57:06.968Z,13.00
2022-12-01T15:59:42.142Z,12.60
2022-12-01T16:02:32.110Z,13.90
2022-12-01T16:05:04.721Z,13.13
2022-12-01T16:08:11.065Z,13.50
2022-12-01T16:10:36.868Z,12.98
2022-12-01T16:13:42.251Z,13.38
2022-12-01T16:16:41.961Z,13.20
2022-12-01T16:19:13.264Z,13.23
2022-12-01T16:22:11.754Z,14.88
2022-12-01T16:24:54.816Z,14.45
2022-12-01T16:27:27.496Z,14.23
2022-12-01T16:30:02.074Z,14.63
2022-12-01T16:32:40.859Z,17.00
2022-12-01T16:35:21.247Z,15.57
2022-12-01T16:37:49.271Z,16.13
2022-12-01T16:40:20.617Z,15.40
2022-12-01T16:42:51.501Z,12.45
2022-12-01T16:45:20.295Z,12.70
2022-12-01T16:47:49.884Z,13.32
2022-12-01T16:50:20.789Z,13.85
2022-12-01T16:52:48.108Z,13.27
2022-12-01T16:55:27.837Z,14.10
2022-12-01T16:57:55.929Z,14.90
2022-12-01T17:00:26.269Z,13.77
2022-12-01T17:02:54.434Z,12.45
2022-12-01T17:05:24.832Z,13.30
2022-12-01T17:07:53.279Z,13.35
2022-12-01T17:10:21.658Z,14.70
2022-12-01T17:12:49.581Z,14.07
2022-12-01T17:15:18.462Z,13.77
2022-12-01T17:17:45.882Z,15.23
2022-12-01T17:20:13.987Z,14.63
2022-12-01T17:22:44.772Z,14.23
2022-12-01T17:25:13.404Z,16.23
2022-12-01T17:27:42.089Z,14.63
2022-12-01T17:30:12.607Z,15.02
2022-12-01T17:32:40.307Z,15.00
2022-12-01T17:35:12.392Z,14.25
2022-12-01T17:37:40.732Z,15.60
2022-12-01T17:40:11.576Z,14.45
2022-12-01T17:42:39.384Z,14.85
2022-12-01T17:45:19.333Z,15.65
2022-12-01T17:47:49.401Z,15.93
2022-12-01T17:50:21.154Z,16.13
2022-12-01T18:04:22.115Z,16.50
2022-12-01T18:15:05.063Z,14.60
2022-12-01T18:20:32.437Z,13.52
2022-12-01T18:25:51.892Z,16.48
2022-12-01T18:28:29.396Z,14.88
2022-12-01T18:31:12.658Z,14.98
2022-12-01T18:33:44.562Z,14.25
2022-12-01T18:36:26.144Z,16.92
2022-12-01T18:39:11.843Z,16.23
2022-12-01T18:41:52.593Z,14.80
2022-12-01T18:44:20.325Z,14.00
2022-12-01T18:47:00.196Z,14.95
2022-12-01T18:49:37.389Z,17.20
2022-12-01T18:52:16.261Z,17.30
2022-12-01T18:54:54.451Z,16.75
2022-12-01T19:00:18.526Z,15.27
2022-12-01T19:05:38.627Z,16.27
2022-12-01T19:08:08.927Z,16.25
2022-12-01T19:10:46.226Z,17.98
2022-12-01T19:13:18.614Z,16.73
2022-12-01T19:15:50.421Z,17.98
2022-12-01T19:18:22.427Z,17.85
2022-12-01T19:20:51.625Z,17.30
2022-12-01T19:23:22.062Z,18.10
2022-12-01T19:36:40.873Z,16.13
2022-12-01T19:39:22.762Z,14.57
2022-12-01T19:42:03.168Z,16.77
2022-12-01T19:47:14.685Z,15.73
2022-12-01T19:49:47.899Z,17.08
2022-12-01T19:52:19.907Z,16.65
2022-12-01T19:54:49.739Z,18.20
2022-12-01T19:57:21.684Z,16.98
2022-12-01T19:59:51.009Z,17.25
2022-12-01T20:02:28.940Z,16.75
2022-12-01T20:05:04.341Z,16.95
2022-12-01T20:07:35.739Z,17.15
2022-12-01T20:10:03.095Z,16.33
2022-12-01T20:12:30.489Z,15.63
2022-12-01T20:15:06.978Z,15.70
2022-12-01T20:17:40.152Z,17.98
2022-12-01T20:20:10.695Z,16.95
2022-12-01T20:22:40.074Z,18.35
2022-12-01T20:25:11.288Z,16.83
2022-12-01T20:27:38.883Z,16.75
2022-12-01T20:30:07.218Z,16.80
2022-12-01T20:32:34.800Z,16.30
2022-12-01T20:35:03.870Z,15.63
2022-12-01T20:37:33.419Z,16.35
2022-12-01T20:40:01.405Z,16.60
2022-12-01T20:42:28.937Z,16.90
2022-12-01T20:47:36.752Z,17.50
2022-12-01T20:50:06.883Z,18.70
2022-12-01T20:52:34.656Z,16.90
2022-12-01T20:55:02.372Z,17.70
2022-12-01T20:57:30.177Z,18.95
2022-12-01T20:59:57.316Z,19.20
2022-12-01T21:02:24.507Z,19.70
2022-12-01T21:04:56.351Z,19.35
2022-12-01T21:07:26.515Z,16.38
2022-12-01T21:09:53.708Z,17.50
2022-12-01T21:12:39.658Z,18.55
2022-12-01T21:15:18.043Z,17.60
2022-12-01T21:17:55.639Z,16.17
2022-12-01T21:20:32.164Z,17.50
2022-12-01T21:23:06.835Z,14.88
2022-12-01T21:25:35.157Z,20.50
2022-12-01T21:28:14.190Z,14.20
2022-12-01T21:30:41.356Z,14.27
2022-12-01T21:33:31.850Z,15.50
2022-12-01T21:36:01.789Z,14.82
2022-12-01T21:38:32.042Z,18.42
2022-12-01T21:41:00.483Z,17.50
2022-12-01T21:43:27.909Z,15.93
2022-12-01T21:46:10.517Z,16.88
2022-12-01T21:48:39.004Z,18.63
2022-12-01T21:51:25.643Z,16.73
2022-12-01T21:56:29.108Z,21.23
2022-12-01T21:59:02.955Z,15.70
2022-12-01T22:01:33.734Z,17.38
2022-12-01T22:04:06.467Z,17.83
2022-12-01T22:06:38.735Z,17.93
2022-12-01T22:09:27.205Z,17.87
2022-12-01T22:12:13.450Z,17.70
2022-12-01T22:14:40.792Z,16.67
2022-12-01T22:17:08.300Z,17.67
2022-12-01T22:19:41.601Z,15.70
2022-12-01T22:22:14.758Z,17.63
2022-12-01T22:24:45.499Z,19.40
2022-12-01T22:27:29.241Z,17.63
2022-12-01T22:30:02.624Z,18.70
2022-12-01T22:33:04.455Z,19.55
2022-12-01T22:35:43.526Z,16.85
2022-12-01T22:38:21.884Z,19.73
2022-12-01T22:40:49.633Z,16.47
2022-12-01T22:43:16.820Z,18.27
2022-12-01T22:45:50.395Z,16.63
2022-12-01T22:48:39.157Z,17.00
2022-12-01T22:51:22.839Z,16.88
2022-12-01T22:53:53.793Z,19.50
2022-12-01T22:56:27.069Z,18.17
2022-12-01T22:58:54.868Z,20.35
2022-12-01T23:01:31.376Z,18.00
2022-12-01T23:04:13.299Z,17.63
2022-12-01T23:06:53.494Z,18.80
2022-12-01T23:09:29.650Z,18.10
2022-12-01T23:14:28.757Z,20.90
2022-12-01T23:17:31.078Z,18.92
2022-12-01T23:20:19.908Z,19.42
2022-12-01T23:22:47.906Z,19.88
2022-12-01T23:25:19.534Z,19.57
2022-12-01T23:27:50.703Z,19.20
2022-12-01T23:30:19.606Z,17.80
2022-12-01T23:32:53.691Z,16.83
2022-12-01T23:35:20.568Z,17.13
2022-12-01T23:37:48.560Z,17.75
2022-12-01T23:40:19.425Z,17.70
2022-12-01T23:42:46.679Z,16.60
2022-12-01T23:45:21.765Z,17.00
2022-12-01T23:47:49.359Z,18.08
2022-12-01T23:50:24.945Z,16.52
2022-12-01T23:52:52.523Z,15.15
2022-12-01T23:55:31.076Z,15.98
2022-12-01T23:57:59.219Z,14.73
